createdAt,value
2023-05-20T00:00:56.767Z,84.55
2023-05-20T00:02:01.005Z,84.54
2023-05-20T00:03:05.386Z,84.52
2023-05-20T00:04:09.791Z,84.52
2023-05-20T00:05:13.863Z,84.52
2023-05-20T00:06:18.191Z,84.52
2023-05-20T00:07:22.418Z,84.54
2023-05-20T00:08:26.744Z,84.54
2023-05-20T00:09:30.962Z,84.52
2023-05-20T00:10:35.257Z,84.48
2023-05-20T00:11:39.562Z,84.46
2023-05-20T00:12:43.760Z,84.47
2023-05-20T00:13:48.046Z,84.47
2023-05-20T00:14:53.719Z,84.49
2023-05-20T00:16:10.579Z,84.52
2023-05-20T00:17:13.498Z,84.57
2023-05-20T00:18:17.754Z,84.56
2023-05-20T00:19:22.110Z,84.67
2023-05-20T00:20:26.317Z,84.65
2023-05-20T00:21:30.536Z,84.64
2023-05-20T00:22:34.746Z,84.70
2023-05-20T00:23:38.922Z,84.74
2023-05-20T00:24:43.131Z,84.79
2023-05-20T00:25:47.443Z,84.84
2023-05-20T00:26:51.713Z,84.88
2023-05-20T00:27:55.949Z,84.95
2023-05-20T00:29:00.285Z,85.02
2023-05-20T00:30:10.601Z,85.05
2023-05-20T00:31:13.458Z,85.09
2023-05-20T00:32:17.763Z,85.23
2023-05-20T00:33:21.966Z,85.24
2023-05-20T00:34:26.349Z,85.30
2023-05-20T00:35:30.563Z,85.33
2023-05-20T00:36:34.853Z,85.36
2023-05-20T00:37:39.089Z,85.36
2023-05-20T00:38:43.341Z,85.35
2023-05-20T00:39:47.641Z,85.39
2023-05-20T00:40:51.925Z,85.43
2023-05-20T00:41:56.306Z,85.47
2023-05-20T00:43:00.532Z,85.50
2023-05-20T00:44:07.807Z,85.54
2023-05-20T00:45:11.107Z,85.60
2023-05-20T00:46:15.412Z,85.62
2023-05-20T00:47:19.580Z,85.67
2023-05-20T00:48:23.940Z,85.70
2023-05-20T00:49:28.220Z,85.72
2023-05-20T00:50:32.550Z,85.72
2023-05-20T00:51:36.724Z,85.72
2023-05-20T00:52:40.964Z,85.75
2023-05-20T00:53:59.219Z,85.78
2023-05-20T00:55:02.304Z,85.84
2023-05-20T00:56:06.521Z,85.90
2023-05-20T00:57:10.799Z,85.97
2023-05-20T00:58:15.043Z,86.03
2023-05-20T00:59:19.295Z,86.08
2023-05-20T01:00:23.602Z,86.12
2023-05-20T01:01:27.998Z,86.22
2023-05-20T01:02:32.263Z,86.26
2023-05-20T01:03:36.513Z,86.29
2023-05-20T01:04:40.707Z,86.33
2023-05-20T01:05:44.902Z,86.33
2023-05-20T01:06:49.175Z,86.37
2023-05-20T01:07:53.437Z,86.46
2023-05-20T01:08:57.663Z,86.46
2023-05-20T01:10:02.000Z,86.61
2023-05-20T01:11:06.242Z,86.48
2023-05-20T01:12:10.590Z,86.46
2023-05-20T01:13:14.804Z,86.46
2023-05-20T01:14:19.069Z,86.48
2023-05-20T01:15:23.369Z,86.54
2023-05-20T01:16:27.643Z,86.59
2023-05-20T01:17:31.940Z,86.66
2023-05-20T01:18:36.112Z,86.73
2023-05-20T01:19:40.391Z,86.70
2023-05-20T01:20:44.748Z,86.80
2023-05-20T01:21:49.089Z,86.86
2023-05-20T01:22:53.286Z,86.91
2023-05-20T01:23:57.560Z,86.99
2023-05-20T01:25:01.892Z,87.05
2023-05-20T01:26:06.191Z,87.08
2023-05-20T01:27:10.510Z,87.09
2023-05-20T01:28:14.835Z,87.11
2023-05-20T01:29:19.044Z,87.14
2023-05-20T01:30:23.293Z,87.15
2023-05-20T01:31:27.664Z,87.21
2023-05-20T01:32:31.847Z,87.24
2023-05-20T01:33:36.112Z,87.27
2023-05-20T01:34:40.430Z,87.29
2023-05-20T01:35:44.626Z,87.33
2023-05-20T01:36:48.906Z,87.40
2023-05-20T01:37:53.210Z,87.49
2023-05-20T01:38:57.528Z,87.58
2023-05-20T01:40:01.731Z,87.66
2023-05-20T01:41:06.078Z,87.78
2023-05-20T01:42:10.296Z,87.94
2023-05-20T01:43:16.189Z,88.05
2023-05-20T01:44:18.971Z,88.14
2023-05-20T01:45:23.168Z,88.23
2023-05-20T01:46:27.620Z,88.34
2023-05-20T01:47:31.760Z,88.30
2023-05-20T01:48:36.062Z,88.39
2023-05-20T01:49:40.351Z,88.46
2023-05-20T01:50:44.544Z,88.58
2023-05-20T01:51:48.818Z,88.71
2023-05-20T01:52:53.111Z,88.82
2023-05-20T01:53:57.426Z,88.91
2023-05-20T01:55:01.632Z,88.97
2023-05-20T01:56:05.891Z,89.01
2023-05-20T01:57:10.135Z,89.06
2023-05-20T01:58:14.400Z,89.12
2023-05-20T01:59:18.822Z,89.19
2023-05-20T02:00:22.994Z,89.26
2023-05-20T02:01:27.441Z,89.31
2023-05-20T02:02:31.613Z,89.43
2023-05-20T02:03:35.774Z,89.52
2023-05-20T02:04:40.042Z,89.61
2023-05-20T02:05:44.444Z,89.69
2023-05-20T02:06:48.573Z,89.80
2023-05-20T02:07:52.995Z,89.87
2023-05-20T02:08:57.232Z,90.03
2023-05-20T02:10:01.520Z,89.99
2023-05-20T02:11:05.716Z,90.03
2023-05-20T02:12:10.075Z,90.10
2023-05-20T02:13:14.421Z,90.14
2023-05-20T02:14:18.586Z,90.21
2023-05-20T02:15:22.905Z,90.23
2023-05-20T02:16:27.122Z,90.22
2023-05-20T02:17:31.497Z,90.29
2023-05-20T02:18:35.669Z,90.38
2023-05-20T02:19:39.920Z,90.53
2023-05-20T02:20:58.133Z,90.65
2023-05-20T02:22:01.336Z,90.81
2023-05-20T02:23:05.499Z,90.91
2023-05-20T02:24:09.831Z,91.02
2023-05-20T02:25:14.102Z,91.14
2023-05-20T02:26:18.401Z,91.22
2023-05-20T02:27:22.582Z,91.31
2023-05-20T02:28:26.933Z,91.45
2023-05-20T02:29:31.103Z,91.57
2023-05-20T02:30:35.383Z,91.68
2023-05-20T02:31:39.609Z,91.89
2023-05-20T02:32:43.888Z,91.93
2023-05-20T02:33:48.158Z,92.06
2023-05-20T02:34:52.366Z,92.13
2023-05-20T02:35:56.625Z,92.13
2023-05-20T02:37:00.826Z,92.31
2023-05-20T02:38:05.056Z,92.35
2023-05-20T02:39:09.441Z,92.34
2023-05-20T02:40:13.665Z,92.52
2023-05-20T02:41:17.896Z,92.57
2023-05-20T02:42:22.221Z,92.69
2023-05-20T02:43:26.449Z,92.81
2023-05-20T02:44:30.747Z,92.95
2023-05-20T02:45:34.990Z,93.07
2023-05-20T02:46:39.283Z,93.13
2023-05-20T02:47:43.452Z,93.24
2023-05-20T02:48:47.708Z,93.29
2023-05-20T02:49:51.927Z,93.50
2023-05-20T02:50:56.252Z,93.63
2023-05-20T02:52:00.529Z,93.75
2023-05-20T02:53:04.689Z,93.84
2023-05-20T02:54:08.948Z,93.95
2023-05-20T02:55:13.250Z,94.05
2023-05-20T02:56:17.487Z,94.18
2023-05-20T02:57:21.702Z,94.35
2023-05-20T02:58:25.973Z,94.46
2023-05-20T02:59:30.228Z,94.58
2023-05-20T03:00:34.479Z,94.69
2023-05-20T03:01:41.898Z,94.76
2023-05-20T03:02:45.190Z,94.83
2023-05-20T03:03:49.456Z,94.92
2023-05-20T03:04:53.819Z,95.00
2023-05-20T03:06:11.881Z,95.08
2023-05-20T03:07:15.124Z,95.21
2023-05-20T03:08:19.130Z,95.28
2023-05-20T03:09:23.454Z,95.42
2023-05-20T03:10:27.660Z,95.56
2023-05-20T03:11:31.961Z,95.63
2023-05-20T03:12:36.184Z,95.75
2023-05-20T03:13:40.420Z,95.89
2023-05-20T03:14:44.563Z,96.03
2023-05-20T03:15:48.981Z,96.13
2023-05-20T03:16:53.211Z,96.21
2023-05-20T03:17:57.477Z,96.20
2023-05-20T03:19:01.804Z,96.31
2023-05-20T03:20:06.028Z,96.41
2023-05-20T03:21:10.234Z,96.48
2023-05-20T03:22:14.536Z,96.59
2023-05-20T03:23:19.627Z,96.70
2023-05-20T03:24:23.528Z,96.81
2023-05-20T03:25:27.777Z,96.95
2023-05-20T03:26:32.057Z,97.06
2023-05-20T03:27:36.276Z,97.12
2023-05-20T03:28:40.478Z,97.23
2023-05-20T03:29:44.890Z,97.33
2023-05-20T03:30:49.011Z,97.42
2023-05-20T03:31:53.630Z,97.52
2023-05-20T03:32:57.614Z,97.71
2023-05-20T03:34:01.774Z,97.72
2023-05-20T03:35:05.997Z,97.77
2023-05-20T03:36:10.342Z,97.83
2023-05-20T03:37:14.533Z,97.98
2023-05-20T03:38:18.795Z,98.10
2023-05-20T03:39:23.135Z,98.16
2023-05-20T03:40:27.319Z,98.19
2023-05-20T03:41:31.645Z,98.24
2023-05-20T03:42:35.872Z,98.28
2023-05-20T03:43:40.190Z,98.29
2023-05-20T03:44:44.389Z,98.33
2023-05-20T03:45:48.625Z,98.35
2023-05-20T03:46:53.018Z,98.39
2023-05-20T03:47:57.182Z,98.44
2023-05-20T03:49:01.384Z,98.51
2023-05-20T03:50:05.644Z,98.61
2023-05-20T03:51:09.967Z,98.65
2023-05-20T03:52:14.288Z,98.72
2023-05-20T03:53:18.571Z,98.76
2023-05-20T03:54:22.768Z,98.83
2023-05-20T03:55:26.995Z,98.88
2023-05-20T03:56:31.242Z,98.92
2023-05-20T03:57:35.599Z,98.96
2023-05-20T03:58:39.983Z,98.99
2023-05-20T03:59:44.181Z,99.10
2023-05-20T04:00:48.477Z,99.18
2023-05-20T04:01:52.835Z,99.19
2023-05-20T04:02:57.038Z,99.25
2023-05-20T04:04:01.410Z,99.31
2023-05-20T04:05:05.620Z,99.35
2023-05-20T04:06:09.908Z,99.47
2023-05-20T04:07:14.247Z,99.48
2023-05-20T04:08:18.448Z,99.55
2023-05-20T04:09:22.758Z,99.65
2023-05-20T04:10:26.993Z,99.70
2023-05-20T04:11:31.344Z,99.78
2023-05-20T04:12:35.636Z,99.90
2023-05-20T04:13:39.940Z,100.00
2023-05-20T04:14:44.290Z,100.00
2023-05-20T04:15:48.603Z,100.00
2023-05-20T04:16:52.939Z,100.00
2023-05-20T04:17:57.239Z,100.00
2023-05-20T04:19:01.419Z,100.00
2023-05-20T04:20:05.615Z,100.00
2023-05-20T04:21:09.887Z,100.00
2023-05-20T04:22:14.135Z,100.00
2023-05-20T04:23:18.484Z,100.00
2023-05-20T04:24:22.690Z,100.00
2023-05-20T04:25:33.052Z,100.00
2023-05-20T04:26:35.940Z,100.00
2023-05-20T04:27:40.220Z,100.00
2023-05-20T04:28:44.508Z,100.00
2023-05-20T04:29:48.811Z,100.00
2023-05-20T04:30:53.153Z,100.00
2023-05-20T04:31:57.503Z,100.00
2023-05-20T04:33:01.799Z,100.00
2023-05-20T04:34:06.175Z,100.00
2023-05-20T04:35:10.479Z,100.00
2023-05-20T04:36:14.702Z,100.00
2023-05-20T04:37:18.945Z,100.00
2023-05-20T04:38:23.204Z,100.00
2023-05-20T04:39:27.452Z,100.00
2023-05-20T04:40:31.848Z,100.00
2023-05-20T04:41:36.106Z,100.00
2023-05-20T04:42:40.297Z,100.00
2023-05-20T04:43:50.839Z,100.00
2023-05-20T04:44:53.743Z,100.00
2023-05-20T04:45:58.094Z,100.00
2023-05-20T04:47:02.236Z,100.00
2023-05-20T04:48:06.580Z,100.00
2023-05-20T04:49:10.797Z,100.00
2023-05-20T04:50:15.174Z,100.00
2023-05-20T04:51:19.490Z,100.00
2023-05-20T04:52:23.756Z,100.00
2023-05-20T04:53:28.017Z,100.00
2023-05-20T04:54:32.321Z,100.00
2023-05-20T04:55:36.554Z,100.00
2023-05-20T04:56:40.959Z,100.00
2023-05-20T04:57:45.188Z,100.00
2023-05-20T04:58:49.613Z,100.00
2023-05-20T04:59:53.817Z,100.00
2023-05-20T05:00:58.120Z,100.00
2023-05-20T05:02:02.431Z,100.00
2023-05-20T05:03:06.740Z,100.00
2023-05-20T05:04:10.914Z,100.00
2023-05-20T05:05:15.103Z,100.00
2023-05-20T05:06:19.390Z,100.00
2023-05-20T05:07:23.639Z,100.00
2023-05-20T05:08:28.027Z,100.00
2023-05-20T05:09:34.250Z,100.00
2023-05-20T05:10:36.510Z,100.00
2023-05-20T05:11:40.797Z,100.00
2023-05-20T05:12:45.108Z,100.00
2023-05-20T05:13:49.355Z,100.00
2023-05-20T05:14:53.687Z,100.00
2023-05-20T05:15:58.074Z,100.00
2023-05-20T05:17:02.322Z,100.00
2023-05-20T05:18:06.751Z,100.00
2023-05-20T05:19:11.076Z,100.00
2023-05-20T05:20:15.384Z,100.00
2023-05-20T05:21:19.595Z,100.00
2023-05-20T05:22:23.891Z,100.00
2023-05-20T05:23:28.262Z,100.00
2023-05-20T05:24:32.589Z,100.00
2023-05-20T05:25:36.802Z,100.00
2023-05-20T05:26:41.193Z,100.00
2023-05-20T05:27:45.482Z,100.00
2023-05-20T05:29:03.785Z,100.00
2023-05-20T05:30:07.021Z,100.00
2023-05-20T05:31:11.267Z,100.00
2023-05-20T05:32:15.763Z,100.00
2023-05-20T05:33:19.868Z,100.00
2023-05-20T05:34:24.095Z,100.00
2023-05-20T05:35:28.407Z,100.00
2023-05-20T05:36:32.768Z,100.00
2023-05-20T05:37:37.070Z,100.00
2023-05-20T05:38:41.336Z,100.00
2023-05-20T05:39:45.637Z,100.00
2023-05-20T05:40:49.992Z,100.00
2023-05-20T05:41:54.300Z,100.00
2023-05-20T05:42:58.604Z,100.00
2023-05-20T05:44:02.918Z,100.00
2023-05-20T05:45:07.250Z,100.00
2023-05-20T05:46:11.541Z,100.00
2023-05-20T05:47:15.983Z,100.00
2023-05-20T05:48:20.251Z,100.00
2023-05-20T05:49:24.542Z,100.00
2023-05-20T05:50:28.893Z,99.85
2023-05-20T05:51:33.205Z,99.39
2023-05-20T05:52:37.613Z,98.92
2023-05-20T05:53:41.886Z,98.32
2023-05-20T05:54:46.315Z,97.11
2023-05-20T05:55:50.563Z,95.67
2023-05-20T05:56:54.818Z,94.81
2023-05-20T05:57:59.177Z,93.91
2023-05-20T05:59:03.554Z,93.37
2023-05-20T06:00:07.851Z,92.89
2023-05-20T06:01:12.243Z,92.34
2023-05-20T06:02:16.666Z,92.17
2023-05-20T06:03:20.983Z,92.05
2023-05-20T06:04:25.232Z,91.67
2023-05-20T06:05:31.231Z,91.71
2023-05-20T06:06:33.744Z,91.81
2023-05-20T06:07:38.075Z,91.86
2023-05-20T06:08:42.445Z,91.93
2023-05-20T06:09:46.710Z,91.96
2023-05-20T06:10:51.101Z,92.13
2023-05-20T06:11:55.417Z,92.24
2023-05-20T06:12:59.791Z,92.25
2023-05-20T06:14:04.101Z,92.48
2023-05-20T06:16:17.564Z,92.78
2023-05-20T06:18:49.045Z,93.01
2023-05-20T06:19:53.333Z,93.07
2023-05-20T06:20:57.591Z,93.12
2023-05-20T06:22:01.945Z,93.35
2023-05-20T06:23:06.279Z,93.42
2023-05-20T06:24:10.672Z,93.45
2023-05-20T06:25:14.916Z,93.19
2023-05-20T06:26:19.309Z,93.03
2023-05-20T06:27:23.612Z,93.02
2023-05-20T06:28:28.038Z,92.98
2023-05-20T06:29:32.261Z,92.95
2023-05-20T06:30:36.654Z,92.85
2023-05-20T06:31:41.002Z,92.92
2023-05-20T06:32:45.323Z,92.83
2023-05-20T06:33:49.649Z,92.66
2023-05-20T06:34:53.989Z,92.31
2023-05-20T06:35:58.409Z,92.02
2023-05-20T06:37:02.751Z,91.60
2023-05-20T06:38:07.086Z,91.31
2023-05-20T06:39:11.332Z,91.00
2023-05-20T06:40:15.790Z,90.53
2023-05-20T06:41:20.146Z,90.20
2023-05-20T06:42:24.512Z,90.01
2023-05-20T06:43:28.892Z,89.45
2023-05-20T06:44:33.251Z,88.61
2023-05-20T06:45:37.667Z,87.93
2023-05-20T06:46:42.090Z,86.91
2023-05-20T06:47:46.442Z,86.21
2023-05-20T06:48:50.782Z,86.31
2023-05-20T06:49:55.296Z,85.28
2023-05-20T06:51:02.648Z,84.57
2023-05-20T06:52:06.215Z,84.41
2023-05-20T06:53:12.800Z,83.83
2023-05-20T06:54:16.417Z,83.66
2023-05-20T06:55:20.830Z,83.54
2023-05-20T06:56:25.102Z,83.17
2023-05-20T06:57:29.515Z,82.47
2023-05-20T06:58:33.890Z,82.35
2023-05-20T06:59:38.278Z,82.00
2023-05-20T07:00:42.687Z,81.95
2023-05-20T07:01:47.050Z,81.50
2023-05-20T07:02:51.362Z,81.85
2023-05-20T07:03:58.727Z,81.76
2023-05-20T07:05:02.169Z,81.76
2023-05-20T07:06:06.554Z,81.66
2023-05-20T07:07:10.910Z,81.47
2023-05-20T07:08:15.303Z,80.94
2023-05-20T07:09:19.759Z,81.01
2023-05-20T07:10:24.143Z,80.80
2023-05-20T07:11:28.438Z,81.13
2023-05-20T07:12:34.348Z,81.39
2023-05-20T07:13:37.071Z,81.17
2023-05-20T07:14:47.403Z,80.48
2023-05-20T07:15:50.422Z,79.72
2023-05-20T07:16:54.712Z,79.44
2023-05-20T07:17:59.096Z,79.50
2023-05-20T07:19:03.458Z,79.78
2023-05-20T07:20:07.787Z,79.44
2023-05-20T07:21:12.156Z,79.56
2023-05-20T07:22:16.478Z,79.66
2023-05-20T07:23:20.814Z,79.72
2023-05-20T07:24:31.251Z,80.10
2023-05-20T07:25:34.485Z,80.02
2023-05-20T07:26:38.525Z,79.57
2023-05-20T07:27:42.937Z,79.99
2023-05-20T07:28:47.344Z,79.96
2023-05-20T07:29:51.619Z,79.36
2023-05-20T07:30:56.470Z,79.56
2023-05-20T07:32:00.539Z,80.02
2023-05-20T07:33:04.809Z,79.15
2023-05-20T07:34:09.259Z,79.22
2023-05-20T07:35:13.530Z,79.22
2023-05-20T07:36:32.122Z,79.10
2023-05-20T07:37:49.457Z,78.88
2023-05-20T07:39:02.684Z,79.19
2023-05-20T07:39:56.914Z,78.76
2023-05-20T07:41:01.255Z,78.56
2023-05-20T07:42:05.676Z,78.69
2023-05-20T07:43:09.979Z,78.91
2023-05-20T07:44:14.370Z,79.16
2023-05-20T07:45:18.674Z,79.16
2023-05-20T07:46:23.233Z,78.79
2023-05-20T07:47:27.559Z,78.88
2023-05-20T07:48:32.017Z,78.68
2023-05-20T07:49:36.350Z,78.75
2023-05-20T07:50:40.666Z,78.02
2023-05-20T07:51:45.032Z,78.23
2023-05-20T07:52:56.620Z,78.31
2023-05-20T07:53:53.783Z,78.24
2023-05-20T07:54:58.098Z,78.58
2023-05-20T07:56:02.536Z,78.94
2023-05-20T07:57:06.992Z,79.24
2023-05-20T07:58:25.314Z,79.40
2023-05-20T07:59:28.243Z,79.09
2023-05-20T08:00:32.440Z,78.80
2023-05-20T08:01:36.910Z,78.60
2023-05-20T08:02:41.391Z,78.05
2023-05-20T08:03:45.685Z,77.16
2023-05-20T08:04:49.975Z,77.45
2023-05-20T08:05:54.373Z,78.45
2023-05-20T08:06:58.820Z,79.10
2023-05-20T08:08:03.098Z,79.68
2023-05-20T08:09:07.555Z,79.62
2023-05-20T08:10:11.999Z,78.92
2023-05-20T08:11:16.235Z,78.68
2023-05-20T08:12:20.782Z,78.34
2023-05-20T08:13:25.072Z,78.23
2023-05-20T08:14:29.403Z,78.72
2023-05-20T08:15:33.912Z,78.92
2023-05-20T08:16:38.151Z,77.54
2023-05-20T08:17:42.624Z,77.32
2023-05-20T08:18:46.948Z,77.40
2023-05-20T08:19:51.258Z,77.17
2023-05-20T08:20:55.756Z,76.93
2023-05-20T08:22:00.042Z,77.74
2023-05-20T08:23:04.497Z,77.52
2023-05-20T08:24:08.921Z,77.51
2023-05-20T08:25:13.291Z,76.75
2023-05-20T08:26:17.658Z,76.48
2023-05-20T08:27:21.959Z,76.18
2023-05-20T08:28:26.328Z,76.09
2023-05-20T08:29:30.719Z,75.93
2023-05-20T08:30:35.005Z,76.79
2023-05-20T08:31:39.399Z,77.16
2023-05-20T08:32:43.714Z,77.08
2023-05-20T08:33:48.052Z,77.12
2023-05-20T08:34:52.342Z,77.16
2023-05-20T08:35:56.718Z,76.85
2023-05-20T08:37:01.064Z,76.47
2023-05-20T08:38:05.420Z,75.79
2023-05-20T08:39:09.842Z,76.04
2023-05-20T08:40:14.148Z,76.55
2023-05-20T08:41:18.501Z,76.79
2023-05-20T08:42:22.830Z,77.05
2023-05-20T08:43:27.253Z,76.87
2023-05-20T08:44:31.543Z,77.19
2023-05-20T08:45:36.176Z,77.51
2023-05-20T08:46:40.395Z,77.46
2023-05-20T08:47:44.681Z,77.31
2023-05-20T08:48:48.994Z,76.93
2023-05-20T08:49:53.365Z,77.03
2023-05-20T08:50:57.713Z,77.32
2023-05-20T08:52:02.157Z,76.62
2023-05-20T08:53:06.598Z,76.55
2023-05-20T08:54:10.876Z,76.24
2023-05-20T08:55:15.197Z,76.89
2023-05-20T08:56:19.585Z,77.41
2023-05-20T08:57:23.906Z,77.56
2023-05-20T08:58:28.222Z,77.35
2023-05-20T08:59:32.684Z,77.69
2023-05-20T09:00:37.024Z,78.07
2023-05-20T09:01:41.475Z,78.30
2023-05-20T09:02:45.735Z,78.61
2023-05-20T09:03:50.153Z,78.95
2023-05-20T09:04:54.471Z,79.28
2023-05-20T09:05:58.860Z,79.38
2023-05-20T09:07:03.314Z,79.29
2023-05-20T09:08:07.619Z,78.77
2023-05-20T09:09:12.127Z,78.83
2023-05-20T09:10:16.459Z,78.73
2023-05-20T09:11:20.882Z,78.69
2023-05-20T09:12:25.385Z,79.05
2023-05-20T09:13:29.602Z,79.36
2023-05-20T09:14:33.996Z,79.91
2023-05-20T09:15:38.458Z,80.11
2023-05-20T09:16:42.818Z,80.22
2023-05-20T09:17:47.198Z,80.19
2023-05-20T09:18:51.581Z,80.24
2023-05-20T09:19:55.962Z,80.36
2023-05-20T09:21:00.278Z,80.28
2023-05-20T09:22:04.635Z,80.23
2023-05-20T09:23:09.014Z,80.19
2023-05-20T09:24:19.422Z,80.33
2023-05-20T09:25:23.891Z,80.59
2023-05-20T09:26:26.856Z,80.77
2023-05-20T09:27:31.309Z,80.83
2023-05-20T09:28:35.612Z,80.78
2023-05-20T09:29:39.905Z,80.96
2023-05-20T09:30:46.019Z,81.44
2023-05-20T09:31:48.721Z,81.75
2023-05-20T09:32:53.039Z,81.80
2023-05-20T09:33:57.301Z,81.49
2023-05-20T09:35:01.668Z,81.66
2023-05-20T09:36:06.054Z,82.09
2023-05-20T09:37:10.339Z,82.12
2023-05-20T09:38:14.787Z,81.96
2023-05-20T09:39:25.078Z,81.85
2023-05-20T09:40:28.193Z,82.00
2023-05-20T09:41:32.471Z,81.96
2023-05-20T09:42:37.030Z,82.37
2023-05-20T09:43:41.198Z,82.33
2023-05-20T09:44:45.575Z,82.00
2023-05-20T09:45:56.180Z,81.59
2023-05-20T09:46:59.099Z,81.20
2023-05-20T09:48:03.546Z,80.95
2023-05-20T09:49:07.923Z,81.24
2023-05-20T09:50:12.182Z,81.35
2023-05-20T09:51:16.546Z,81.57
2023-05-20T09:52:21.618Z,81.49
2023-05-20T09:53:25.153Z,81.39
2023-05-20T09:54:29.660Z,81.51
2023-05-20T09:55:34.444Z,81.92
2023-05-20T09:56:38.323Z,82.33
2023-05-20T09:57:42.700Z,82.58
2023-05-20T09:58:47.212Z,82.88
2023-05-20T09:59:51.492Z,83.25
2023-05-20T10:00:55.935Z,82.99
2023-05-20T10:02:00.267Z,82.69
2023-05-20T10:03:04.844Z,82.52
2023-05-20T10:04:09.008Z,82.47
2023-05-20T10:05:13.336Z,82.47
2023-05-20T10:06:17.692Z,82.50
2023-05-20T10:07:41.243Z,82.59
2023-05-20T10:08:31.076Z,82.80
2023-05-20T10:09:35.335Z,82.87
2023-05-20T10:10:39.689Z,82.91
2023-05-20T10:11:44.042Z,83.21
2023-05-20T10:12:48.507Z,83.36
2023-05-20T10:13:52.767Z,83.38
2023-05-20T10:14:57.227Z,83.28
2023-05-20T10:16:01.640Z,83.36
2023-05-20T10:17:06.105Z,82.86
2023-05-20T10:18:10.450Z,82.76
2023-05-20T10:19:15.016Z,82.85
2023-05-20T10:20:19.245Z,83.14
2023-05-20T10:21:23.572Z,83.22
2023-05-20T10:22:28.000Z,83.56
2023-05-20T10:23:32.314Z,83.57
2023-05-20T10:24:36.760Z,83.44
2023-05-20T10:25:41.059Z,83.44
2023-05-20T10:26:45.416Z,83.47
2023-05-20T10:27:49.862Z,83.29
2023-05-20T10:28:54.226Z,82.99
2023-05-20T10:29:58.719Z,82.79
2023-05-20T10:31:02.982Z,82.63
2023-05-20T10:32:07.535Z,82.37
2023-05-20T10:33:11.890Z,82.07
2023-05-20T10:34:16.191Z,82.01
2023-05-20T10:35:20.567Z,82.17
2023-05-20T10:36:24.881Z,82.05
2023-05-20T10:37:29.323Z,82.00
2023-05-20T10:38:33.636Z,81.98
2023-05-20T10:39:38.083Z,82.28
2023-05-20T10:40:42.340Z,82.66
2023-05-20T10:41:46.646Z,82.94
2023-05-20T10:42:51.125Z,82.89
2023-05-20T10:43:55.514Z,82.85
2023-05-20T10:44:59.886Z,83.02
2023-05-20T10:46:07.549Z,83.10
2023-05-20T10:47:24.805Z,83.17
2023-05-20T10:48:13.025Z,82.59
2023-05-20T10:49:17.488Z,82.43
2023-05-20T10:50:21.644Z,82.23
2023-05-20T10:51:26.022Z,81.83
2023-05-20T10:52:30.389Z,81.05
2023-05-20T10:53:34.907Z,81.17
2023-05-20T10:54:39.186Z,80.65
2023-05-20T10:55:43.497Z,80.41
2023-05-20T10:56:47.848Z,79.97
2023-05-20T10:57:52.339Z,79.99
2023-05-20T10:58:56.637Z,80.20
2023-05-20T11:00:01.121Z,79.78
2023-05-20T11:01:05.496Z,79.31
2023-05-20T11:02:09.739Z,79.35
2023-05-20T11:03:14.212Z,79.52
2023-05-20T11:04:18.486Z,78.94
2023-05-20T11:05:22.877Z,78.80
2023-05-20T11:06:27.166Z,79.02
2023-05-20T11:07:31.513Z,79.40
2023-05-20T11:08:36.001Z,79.93
2023-05-20T11:09:40.322Z,80.11
2023-05-20T11:10:44.785Z,80.28
2023-05-20T11:11:49.219Z,80.36
2023-05-20T11:12:53.510Z,80.35
2023-05-20T11:13:57.809Z,80.37
2023-05-20T11:15:02.161Z,80.27
2023-05-20T11:16:06.665Z,80.40
2023-05-20T11:17:10.905Z,80.37
2023-05-20T11:18:17.030Z,80.48
2023-05-20T11:19:19.809Z,80.17
2023-05-20T11:20:24.183Z,80.27
2023-05-20T11:21:28.630Z,80.60
2023-05-20T11:22:32.876Z,81.03
2023-05-20T11:23:39.887Z,81.28
2023-05-20T11:24:41.614Z,81.35
2023-05-20T11:25:46.089Z,80.87
2023-05-20T11:26:50.528Z,80.69
2023-05-20T11:27:54.844Z,80.14
2023-05-20T11:29:01.292Z,79.84
2023-05-20T11:30:03.650Z,79.86
2023-05-20T11:31:08.139Z,80.02
2023-05-20T11:32:12.448Z,80.18
2023-05-20T11:33:16.809Z,80.15
2023-05-20T11:34:23.253Z,80.32
2023-05-20T11:35:25.623Z,80.34
2023-05-20T11:36:29.936Z,80.48
2023-05-20T11:37:34.368Z,80.37
2023-05-20T11:38:38.741Z,80.56
2023-05-20T11:39:43.140Z,80.98
2023-05-20T11:40:51.074Z,81.20
2023-05-20T11:41:51.900Z,81.19
2023-05-20T11:42:56.294Z,81.41
2023-05-20T11:44:00.784Z,81.53
2023-05-20T11:45:04.970Z,81.63
2023-05-20T11:46:09.432Z,81.71
2023-05-20T11:47:13.782Z,81.94
2023-05-20T11:48:18.219Z,82.03
2023-05-20T11:49:22.578Z,82.27
2023-05-20T11:50:27.068Z,82.59
2023-05-20T11:51:31.352Z,82.71
2023-05-20T11:52:35.848Z,82.97
2023-05-20T11:53:40.163Z,82.30
2023-05-20T11:54:44.502Z,82.28
2023-05-20T11:55:48.860Z,82.38
2023-05-20T11:56:53.194Z,82.58
2023-05-20T11:57:57.530Z,82.67
2023-05-20T11:59:01.978Z,82.61
2023-05-20T12:00:06.364Z,82.66
2023-05-20T12:01:21.807Z,82.94
2023-05-20T12:02:16.120Z,83.06
2023-05-20T12:03:19.561Z,83.23
2023-05-20T12:04:23.804Z,83.27
2023-05-20T12:05:28.024Z,83.38
2023-05-20T12:06:32.399Z,83.72
2023-05-20T12:07:36.733Z,83.75
2023-05-20T12:08:41.213Z,83.76
2023-05-20T12:09:45.649Z,83.89
2023-05-20T12:10:50.058Z,83.84
2023-05-20T12:11:54.291Z,83.69
2023-05-20T12:13:01.773Z,83.64
2023-05-20T12:14:05.138Z,83.66
2023-05-20T12:15:09.448Z,83.65
2023-05-20T12:16:13.795Z,83.87
2023-05-20T12:17:18.147Z,84.04
2023-05-20T12:18:22.455Z,84.06
2023-05-20T12:19:26.871Z,84.05
2023-05-20T12:20:31.274Z,83.99
2023-05-20T12:21:35.535Z,83.80
2023-05-20T12:22:39.966Z,83.68
2023-05-20T12:23:44.390Z,83.66
2023-05-20T12:24:48.698Z,83.69
2023-05-20T12:25:53.019Z,83.77
2023-05-20T12:26:57.382Z,83.77
2023-05-20T12:28:01.775Z,83.79
2023-05-20T12:29:06.094Z,83.86
2023-05-20T12:30:10.450Z,83.78
2023-05-20T12:31:14.958Z,83.76
2023-05-20T12:32:19.316Z,83.74
2023-05-20T12:33:23.723Z,83.69
2023-05-20T12:34:28.035Z,83.74
2023-05-20T12:35:32.522Z,83.77
2023-05-20T12:36:36.868Z,83.62
2023-05-20T12:37:41.265Z,83.83
2023-05-20T12:38:45.526Z,83.89
2023-05-20T12:39:49.852Z,83.79
2023-05-20T12:40:54.181Z,83.62
2023-05-20T12:41:58.619Z,83.37
2023-05-20T12:43:02.993Z,83.24
2023-05-20T12:44:07.439Z,82.80
2023-05-20T12:45:11.697Z,82.69
2023-05-20T12:46:16.172Z,82.97
2023-05-20T12:47:20.559Z,83.19
2023-05-20T12:48:24.896Z,83.43
2023-05-20T12:49:29.303Z,83.18
2023-05-20T12:50:33.950Z,82.95
2023-05-20T12:51:38.113Z,83.01
2023-05-20T12:52:42.401Z,83.18
2023-05-20T12:53:46.722Z,82.99
2023-05-20T12:54:51.124Z,83.02
2023-05-20T12:55:55.472Z,82.90
2023-05-20T12:56:59.788Z,82.92
2023-05-20T12:58:04.088Z,83.11
2023-05-20T12:59:08.564Z,83.05
2023-05-20T13:00:12.839Z,83.00
2023-05-20T13:01:17.202Z,83.18
2023-05-20T13:02:21.551Z,83.29
2023-05-20T13:03:25.906Z,83.08
2023-05-20T13:04:30.354Z,83.17
2023-05-20T13:05:34.621Z,83.25
2023-05-20T13:06:39.095Z,83.22
2023-05-20T13:07:57.500Z,82.88
2023-05-20T13:09:00.878Z,82.81
2023-05-20T13:10:05.237Z,82.58
2023-05-20T13:11:09.472Z,82.37
2023-05-20T13:12:13.888Z,82.45
2023-05-20T13:13:18.281Z,82.43
2023-05-20T13:14:22.558Z,82.17
2023-05-20T13:15:26.872Z,81.90
2023-05-20T13:16:31.274Z,82.06
2023-05-20T13:17:35.682Z,82.25
2023-05-20T13:18:40.141Z,81.99
2023-05-20T13:19:44.416Z,82.06
2023-05-20T13:20:48.825Z,81.82
2023-05-20T13:21:53.152Z,81.81
2023-05-20T13:22:57.556Z,81.71
2023-05-20T13:24:01.945Z,81.57
2023-05-20T13:25:06.304Z,81.14
2023-05-20T13:26:10.715Z,81.26
2023-05-20T13:27:15.105Z,81.28
2023-05-20T13:28:19.552Z,81.18
2023-05-20T13:29:23.897Z,81.09
2023-05-20T13:30:28.343Z,81.03
2023-05-20T13:31:32.653Z,80.88
2023-05-20T13:32:36.993Z,80.74
2023-05-20T13:33:41.436Z,80.73
2023-05-20T13:34:45.702Z,80.83
2023-05-20T13:35:50.139Z,81.03
2023-05-20T13:36:54.539Z,81.02
2023-05-20T13:37:58.970Z,81.02
2023-05-20T13:39:03.350Z,81.19
2023-05-20T13:40:07.811Z,81.39
2023-05-20T13:41:18.005Z,81.30
2023-05-20T13:42:21.174Z,81.43
2023-05-20T13:43:25.474Z,81.44
2023-05-20T13:44:30.620Z,81.02
2023-05-20T13:45:34.214Z,80.88
2023-05-20T13:46:38.639Z,80.96
2023-05-20T13:47:49.158Z,80.64
2023-05-20T13:48:52.106Z,80.06
2023-05-20T13:49:56.466Z,79.75
2023-05-20T13:51:00.766Z,79.86